createdAt,value
2024-01-05T10:38:08.916Z,6.60
2024-01-05T10:40:35.724Z,6.50
2024-01-05T10:43:10.497Z,6.40
2024-01-05T10:45:39.128Z,6.50
2024-01-05T10:48:10.397Z,6.50
2024-01-05T10:50:38.527Z,6.50
2024-01-05T10:53:09.935Z,6.40
2024-01-05T10:55:38.791Z,6.40
2024-01-05T10:58:08.916Z,6.50
2024-01-05T11:00:37.215Z,6.40
2024-01-05T11:03:12.093Z,6.40
2024-01-05T11:05:42.341Z,6.40
2024-01-05T11:08:24.744Z,6.40
2024-01-05T11:11:26.835Z,6.40
2024-01-05T11:14:07.168Z,6.40
2024-01-05T11:16:56.139Z,6.40
2024-01-05T11:19:47.874Z,6.40
2024-01-05T11:22:20.382Z,6.40
2024-01-05T11:24:49.422Z,6.50
2024-01-05T11:27:36.018Z,6.40
2024-01-05T11:30:04.070Z,6.40
2024-01-05T11:32:34.668Z,6.40
2024-01-05T11:35:02.374Z,6.40
2024-01-05T11:37:32.615Z,6.50
2024-01-05T11:40:01.465Z,6.50
2024-01-05T11:42:30.053Z,6.50
2024-01-05T11:45:02.252Z,6.50
2024-01-05T11:47:48.480Z,6.50
2024-01-05T11:50:33.293Z,6.50
2024-01-05T11:53:16.069Z,6.50
2024-01-05T11:56:16.300Z,6.50
2024-01-05T11:58:45.281Z,6.50
2024-01-05T12:01:13.292Z,6.50
2024-01-05T12:03:41.138Z,6.50
2024-01-05T12:06:12.543Z,6.50
2024-01-05T12:08:41.227Z,6.50
2024-01-05T12:11:10.078Z,6.50
2024-01-05T12:13:38.643Z,6.50
2024-01-05T12:16:10.844Z,6.50
2024-01-05T12:18:46.660Z,6.40
2024-01-05T12:21:16.012Z,6.50
2024-01-05T12:23:52.465Z,6.50
2024-01-05T12:26:20.104Z,6.50
2024-01-05T12:28:47.979Z,6.50
2024-01-05T12:31:15.031Z,6.50
2024-01-05T12:33:43.438Z,6.50
2024-01-05T12:36:14.498Z,6.50
2024-01-05T12:38:42.094Z,6.50
2024-01-05T12:41:10.701Z,6.50
2024-01-05T12:43:38.533Z,6.50
2024-01-05T12:46:07.362Z,6.50
2024-01-05T12:48:34.540Z,6.50
2024-01-05T12:51:12.501Z,6.50
2024-01-05T12:53:39.217Z,6.50
2024-01-05T12:56:18.533Z,6.50
2024-01-05T12:58:49.499Z,6.60
2024-01-05T13:01:24.266Z,6.70
2024-01-05T13:03:56.401Z,6.70
2024-01-05T13:06:25.722Z,6.70
2024-01-05T13:08:52.814Z,6.70
2024-01-05T13:11:21.524Z,6.70
2024-01-05T13:13:50.310Z,6.70
2024-01-05T13:16:17.410Z,6.80
2024-01-05T13:18:44.368Z,6.90
2024-01-05T13:21:11.591Z,6.90
2024-01-05T13:23:41.392Z,6.90
2024-01-05T13:26:08.144Z,6.90
2024-01-05T13:28:38.293Z,7.00
2024-01-05T13:31:05.784Z,7.00
2024-01-05T13:33:33.751Z,7.00
2024-01-05T13:36:00.860Z,7.10
2024-01-05T13:38:27.988Z,7.10
2024-01-05T13:40:54.741Z,7.10
2024-01-05T13:43:23.176Z,7.20
2024-01-05T13:45:51.265Z,7.20
2024-01-05T13:48:18.220Z,7.20
2024-01-05T13:50:44.983Z,7.20
2024-01-05T13:53:14.113Z,7.20
2024-01-05T13:55:41.669Z,7.20
2024-01-05T13:58:08.583Z,7.20
2024-01-05T14:00:35.501Z,7.20
2024-01-05T14:03:02.399Z,7.20
2024-01-05T14:05:29.603Z,7.20
2024-01-05T14:07:56.481Z,7.20
2024-01-05T14:10:23.219Z,7.20
2024-01-05T14:12:49.881Z,7.20
2024-01-05T14:15:16.888Z,7.20
2024-01-05T14:17:43.775Z,7.20
2024-01-05T14:20:11.288Z,7.20
2024-01-05T14:22:38.203Z,7.20
2024-01-05T14:25:08.029Z,7.20
2024-01-05T14:27:34.962Z,7.20
2024-01-05T14:30:01.872Z,7.10
2024-01-05T14:32:28.611Z,7.20
2024-01-05T14:34:55.428Z,7.20
2024-01-05T14:37:22.932Z,7.20
2024-01-05T14:39:49.655Z,7.20
2024-01-05T14:42:17.127Z,7.20
2024-01-05T14:44:43.906Z,7.20
2024-01-05T14:47:10.622Z,7.20
2024-01-05T14:49:37.377Z,7.10
2024-01-05T14:52:04.370Z,7.20
2024-01-05T14:54:31.682Z,7.20
2024-01-05T14:56:58.601Z,7.30
2024-01-05T14:59:25.280Z,7.30
2024-01-05T15:01:52.033Z,7.20
2024-01-05T15:04:18.916Z,7.20
2024-01-05T15:06:45.803Z,7.20
2024-01-05T15:09:13.178Z,7.20
2024-01-05T15:11:40.761Z,7.40
2024-01-05T15:14:07.705Z,7.30
2024-01-05T15:16:43.077Z,7.30
2024-01-05T15:19:10.155Z,7.30
2024-01-05T15:21:37.109Z,7.20
2024-01-05T15:24:04.606Z,7.20
2024-01-05T15:26:31.503Z,7.20
2024-01-05T15:29:03.123Z,7.10
2024-01-05T15:31:30.264Z,7.10
2024-01-05T15:33:57.934Z,7.00
2024-01-05T15:36:25.731Z,7.00
2024-01-05T15:38:52.815Z,7.00
2024-01-05T15:41:20.301Z,7.00
2024-01-05T15:43:48.854Z,7.00
2024-01-05T15:46:17.683Z,7.00
2024-01-05T15:48:44.903Z,7.00
2024-01-05T15:51:20.486Z,6.90
2024-01-05T15:53:47.779Z,6.90
2024-01-05T15:56:17.435Z,6.90
2024-01-05T15:58:44.373Z,6.80
2024-01-05T16:01:12.587Z,6.80
2024-01-05T16:03:41.019Z,6.80
2024-01-05T16:06:12.083Z,6.90
2024-01-05T16:08:40.013Z,6.80
2024-01-05T16:11:06.728Z,6.80
2024-01-05T16:13:33.446Z,6.90
2024-01-05T16:16:16.034Z,6.80
2024-01-05T16:18:45.088Z,6.90
2024-01-05T16:21:12.513Z,6.90
2024-01-05T16:23:40.596Z,6.80
2024-01-05T16:26:10.311Z,6.80
2024-01-05T16:28:37.081Z,6.80
2024-01-05T16:31:03.920Z,6.80
2024-01-05T16:33:31.994Z,6.80
2024-01-05T16:35:59.044Z,6.80
2024-01-05T16:38:25.915Z,6.80
2024-01-05T16:40:52.581Z,6.70
2024-01-05T16:43:19.572Z,6.70
2024-01-05T16:45:47.016Z,6.70
2024-01-05T16:48:14.426Z,6.80
2024-01-05T16:50:44.459Z,6.80
2024-01-05T16:53:11.913Z,6.80
2024-01-05T16:55:38.698Z,6.80
2024-01-05T16:58:05.968Z,6.70
2024-01-05T17:00:33.189Z,6.80
2024-01-05T17:03:04.279Z,6.80
2024-01-05T17:05:31.231Z,6.90
2024-01-05T17:07:57.995Z,6.80
2024-01-05T17:10:24.729Z,6.70
2024-01-05T17:12:51.462Z,6.80
2024-01-05T17:15:18.312Z,6.80
2024-01-05T17:17:46.372Z,6.80
2024-01-05T17:20:21.820Z,6.80
2024-01-05T17:22:52.141Z,6.80
2024-01-05T17:25:18.856Z,6.80
2024-01-05T17:27:45.658Z,6.80
2024-01-05T17:30:14.823Z,6.80
2024-01-05T17:32:41.635Z,6.70
2024-01-05T17:35:09.353Z,6.80
2024-01-05T17:37:36.138Z,6.80
2024-01-05T17:40:04.641Z,6.80
2024-01-05T17:42:31.542Z,6.80
2024-01-05T17:44:58.345Z,6.80
2024-01-05T17:47:25.558Z,6.80
2024-01-05T17:49:52.458Z,6.80
2024-01-05T17:52:21.516Z,6.80
2024-01-05T17:54:48.370Z,6.80
2024-01-05T17:57:15.351Z,6.80
2024-01-05T17:59:42.168Z,6.80
2024-01-05T18:02:08.999Z,6.80
2024-01-05T18:04:35.793Z,6.80
2024-01-05T18:07:02.765Z,6.70
2024-01-05T18:09:29.671Z,6.70
2024-01-05T18:11:56.399Z,6.80
2024-01-05T18:14:23.113Z,6.80
2024-01-05T18:16:50.850Z,6.80
2024-01-05T18:19:18.001Z,6.80
2024-01-05T18:21:46.252Z,6.80
2024-01-05T18:24:13.461Z,6.80
2024-01-05T18:26:40.639Z,6.80
2024-01-05T18:29:16.856Z,6.80
2024-01-05T18:31:52.061Z,6.80
2024-01-05T18:34:22.981Z,6.80
2024-01-05T18:36:50.465Z,6.90
2024-01-05T18:39:17.478Z,6.80
2024-01-05T18:41:44.736Z,6.80
2024-01-05T18:44:14.676Z,6.80
2024-01-05T18:46:41.593Z,6.80
2024-01-05T18:49:09.081Z,6.80
2024-01-05T18:51:36.244Z,6.80
2024-01-05T18:54:05.229Z,6.90
2024-01-05T18:56:33.417Z,6.80
2024-01-05T18:59:00.503Z,6.90
2024-01-05T19:01:27.439Z,6.90
2024-01-05T19:03:54.277Z,6.90
2024-01-05T19:06:21.979Z,6.80
2024-01-05T19:08:48.819Z,6.90
2024-01-05T19:11:15.666Z,6.80
2024-01-05T19:13:43.030Z,6.80
2024-01-05T19:16:09.965Z,6.80
2024-01-05T19:18:37.244Z,6.80
2024-01-05T19:21:05.137Z,6.80
2024-01-05T19:23:32.132Z,6.90
2024-01-05T19:25:59.974Z,6.90
2024-01-05T19:28:28.043Z,6.90
2024-01-05T19:30:55.704Z,6.90
2024-01-05T19:33:22.986Z,6.90
2024-01-05T19:35:50.085Z,6.90
2024-01-05T19:38:16.987Z,6.90
2024-01-05T19:40:44.814Z,6.90
2024-01-05T19:43:15.732Z,6.90
2024-01-05T19:45:42.696Z,6.90
2024-01-05T19:48:10.534Z,6.90
2024-01-05T19:50:38.514Z,6.90
2024-01-05T19:53:05.937Z,6.90
2024-01-05T19:55:33.216Z,6.90
2024-01-05T19:58:00.055Z,7.00
2024-01-05T20:00:27.241Z,6.90
2024-01-05T20:02:54.212Z,6.90
2024-01-05T20:05:22.674Z,6.90
2024-01-05T20:07:51.262Z,6.90
2024-01-05T20:10:18.169Z,6.90
2024-01-05T20:12:47.318Z,7.00
2024-01-05T20:15:14.776Z,6.90
2024-01-05T20:17:42.061Z,7.00
2024-01-05T20:20:12.601Z,7.00
2024-01-05T20:22:40.458Z,6.90
2024-01-05T20:25:08.183Z,7.00
2024-01-05T20:27:42.462Z,7.00
2024-01-05T20:30:12.285Z,7.00
2024-01-05T20:32:42.576Z,7.00
2024-01-05T20:35:12.180Z,7.00
2024-01-05T20:37:39.329Z,7.00
2024-01-05T20:40:09.431Z,7.00
2024-01-05T20:42:37.822Z,7.00
2024-01-05T20:45:07.175Z,7.00
2024-01-05T20:47:34.316Z,7.00
2024-01-05T20:50:01.253Z,7.00
2024-01-05T20:52:28.325Z,7.00
2024-01-05T20:54:55.225Z,7.00
2024-01-05T20:57:22.156Z,7.00
2024-01-05T20:59:50.148Z,7.00
2024-01-05T21:02:17.164Z,7.00
2024-01-05T21:04:47.145Z,6.90
2024-01-05T21:07:15.536Z,6.90
2024-01-05T21:09:42.563Z,6.90
2024-01-05T21:12:09.475Z,7.00
2024-01-05T21:14:40.330Z,7.00
2024-01-05T21:17:07.793Z,7.00
2024-01-05T21:19:40.340Z,7.00
2024-01-05T21:22:07.546Z,7.00
2024-01-05T21:24:34.545Z,6.90
2024-01-05T21:27:01.481Z,6.90
2024-01-05T21:29:29.216Z,6.90
2024-01-05T21:31:56.447Z,6.90
2024-01-05T21:34:23.352Z,6.90
2024-01-05T21:36:50.649Z,6.90
2024-01-05T21:39:17.923Z,6.90
2024-01-05T21:41:47.206Z,6.90
2024-01-05T21:44:14.173Z,6.80
2024-01-05T21:46:40.910Z,6.80
2024-01-05T21:49:09.513Z,6.80
2024-01-05T21:51:37.240Z,6.80
2024-01-05T21:54:04.492Z,6.80
2024-01-05T21:56:31.361Z,6.70
2024-01-05T21:58:58.120Z,6.70
2024-01-05T22:01:24.986Z,6.70
2024-01-05T22:03:51.841Z,6.70
2024-01-05T22:06:18.789Z,6.60
2024-01-05T22:08:46.290Z,6.70
2024-01-05T22:11:13.094Z,6.60
2024-01-05T22:13:40.296Z,6.60
2024-01-05T22:16:07.459Z,6.50
2024-01-05T22:18:38.113Z,6.50
2024-01-05T22:21:15.038Z,6.40
2024-01-05T22:23:42.220Z,6.50
2024-01-05T22:26:09.501Z,6.40
2024-01-05T22:28:37.574Z,6.40
2024-01-05T22:31:10.473Z,6.40
2024-01-05T22:33:39.588Z,6.40
2024-01-05T22:36:11.299Z,6.40
2024-01-05T22:38:38.940Z,6.40
2024-01-05T22:41:06.943Z,6.30
2024-01-05T22:43:34.725Z,6.30
2024-01-05T22:46:08.360Z,6.30
2024-01-05T22:48:36.597Z,6.30
2024-01-05T22:51:04.133Z,6.30
2024-01-05T22:53:30.886Z,6.30
2024-01-05T22:55:57.563Z,6.30
2024-01-05T22:58:24.248Z,6.30
2024-01-05T23:00:51.036Z,6.30
2024-01-05T23:03:17.938Z,6.40
2024-01-05T23:05:44.706Z,6.40
2024-01-05T23:08:11.621Z,6.30
2024-01-05T23:10:38.333Z,6.30
2024-01-05T23:13:05.964Z,6.20
2024-01-05T23:15:36.109Z,6.20
2024-01-05T23:18:03.031Z,6.30
2024-01-05T23:20:31.413Z,6.30
2024-01-05T23:22:58.230Z,6.20
2024-01-05T23:25:24.954Z,6.20
2024-01-05T23:27:51.722Z,6.20
2024-01-05T23:30:18.741Z,6.10
2024-01-05T23:32:45.745Z,6.10
2024-01-05T23:35:13.260Z,6.10
